Time;durP1;ratioP1;P1;durP2;ratioP2;P2;SDS_P1;SDS_P2;PMS_P1;PMS_P2;Temp;Humidity;BMP_temperature;BMP_pressure;BME280_temperature;BME280_humidity;BME280_pressure;Samples;Min_cycle;Max_cycle;Signal;HPM_P1;HPM_P2
2023/05/13 00:01:53;;;;;;;8.25;6.40;;;;;;;14.20;86.16;101812.81;4884669;29;20055;-91
2023/05/13 00:07:44;;;;;;;9.32;6.22;;;;;;;14.18;85.65;101811.34;4901846;29;20441;-91
2023/05/13 00:10:30;;;;;;;7.30;6.15;;;;;;;14.14;85.34;101808.22;4884464;29;20031;-91
2023/05/13 00:13:10;;;;;;;9.20;6.30;;;;;;;14.26;85.15;101821.16;4884792;29;20055;-91
2023/05/13 00:15:49;;;;;;;9.25;6.60;;;;;;;14.20;85.28;101817.41;4870300;29;20029;-91
2023/05/13 00:18:34;;;;;;;;;;;;;;;;;;;;;
2023/05/13 00:21:17;;;;;;;6.68;6.00;;;;;;;14.08;85.47;101806.31;4825509;29;20042;-91
2023/05/13 00:24:02;;;;;;;9.80;6.38;;;;;;;14.12;85.15;101818.50;4893155;29;20028;-91
2023/05/13 00:26:31;;;;;;;8.43;6.57;;;;;;;14.00;85.42;101803.84;4870913;29;20386;-91
2023/05/13 00:29:02;;;;;;;8.50;6.38;;;;;;;14.00;85.10;101812.03;4883958;29;20040;-91
2023/05/13 00:41:04;;;;;;;8.93;5.67;;;;;;;13.83;84.75;101806.19;4863618;29;20526;-91
2023/05/13 00:47:24;;;;;;;6.40;5.43;;;;;;;13.76;84.85;101808.94;4862119;29;20534;-91
2023/05/13 00:49:43;;;;;;;8.30;6.32;;;;;;;13.76;84.41;101813.53;4880934;29;20071;-91
2023/05/13 00:55:19;;;;;;;6.00;5.40;;;;;;;13.71;84.82;101816.91;4860041;29;20396;-91
2023/05/13 00:58:16;;;;;;;6.63;5.35;;;;;;;13.69;84.85;101817.13;4884118;29;20072;-91
2023/05/13 01:00:59;;;;;;;7.72;5.85;;;;;;;13.76;84.34;101825.31;4884006;29;20507;-91
2023/05/13 01:27:40;;;;;;;9.90;5.67;;;;;;;13.50;83.55;101816.09;4787804;30;20400;-91
2023/05/13 01:33:54;;;;;;;7.35;5.72;;;;;;;13.26;84.54;101803.94;4788522;30;20087;-92
2023/05/13 01:39:55;;;;;;;8.43;6.18;;;;;;;13.14;84.45;101809.19;4789352;30;20085;-91
2023/05/13 01:45:45;;;;;;;11.90;6.10;;;;;;;12.99;85.61;101801.22;4787967;30;20507;-91
2023/05/13 01:51:57;;;;;;;7.28;6.03;;;;;;;12.91;85.30;101814.19;4788328;30;20054;-91
2023/05/13 01:54:31;;;;;;;12.52;6.47;;;;;;;12.88;86.37;101823.59;4772821;30;20093;-91
2023/05/13 02:00:42;;;;;;;10.48;6.00;;;;;;;12.78;86.57;101815.00;4898055;29;20074;-91
2023/05/13 02:03:25;;;;;;;9.60;6.78;;;;;;;12.74;88.02;101822.75;4883100;29;20047;-92
2023/05/13 02:09:15;;;;;;;9.88;6.20;;;;;;;12.66;87.46;101811.22;4850525;29;20056;-91
2023/05/13 02:12:14;;;;;;;13.20;7.13;;;;;;;12.62;86.83;101814.34;4883467;29;20032;-92
2023/05/13 02:14:55;;;;;;;;;;;;;;;;;;;;;
2023/05/13 02:20:22;;;;;;;9.40;6.90;;;;;;;12.60;88.48;101834.66;4823978;29;20054;-92
2023/05/13 02:26:32;;;;;;;8.50;6.33;;;;;;;12.40;88.10;101816.38;4806288;29;20087;-91
2023/05/13 02:29:26;;;;;;;;;;;;;;;;;;;;;
2023/05/13 02:32:41;;;;;;;8.45;6.53;;;;;;;12.31;89.06;101819.47;4852061;29;20044;-91
2023/05/13 02:35:14;;;;;;;9.27;7.03;;;;;;;12.34;88.93;101835.38;4862717;29;20037;-91
2023/05/13 02:40:49;;;;;;;;;;;;;;;;;;;;;
2023/05/13 02:43:31;;;;;;;8.65;6.57;;;;;;;12.18;89.52;101829.25;4899748;29;20040;-91
2023/05/13 02:46:50;;;;;;;9.45;7.20;;;;;;;12.16;89.95;101825.88;4882290;29;20107;-91
2023/05/13 02:49:23;;;;;;;9.50;6.55;;;;;;;12.10;90.34;101823.97;4891174;29;20045;-91
2023/05/13 02:51:59;;;;;;;9.95;6.93;;;;;;;12.00;90.62;101812.63;4867602;29;20036;-90
2023/05/13 02:54:29;;;;;;;9.43;6.90;;;;;;;12.00;90.78;101824.38;4881771;29;20462;-91
2023/05/13 02:57:17;;;;;;;11.05;7.20;;;;;;;11.95;89.69;101815.94;4866467;29;20039;-91
2023/05/13 02:59:50;;;;;;;9.48;6.60;;;;;;;11.92;92.71;101810.88;4882523;29;20037;-91
2023/05/13 03:02:21;;;;;;;9.25;7.00;;;;;;;11.85;91.25;101826.31;4867347;29;20060;-91
2023/05/13 03:05:45;;;;;;;7.82;7.03;;;;;;;11.77;91.22;101813.72;4882476;29;20045;-91
2023/05/13 03:19:06;;;;;;;7.63;6.72;;;;;;;11.65;91.81;101818.03;4860924;29;20078;-91
2023/05/13 03:41:56;;;;;;;10.37;7.30;;;;;;;11.36;93.20;101831.63;4735228;30;20055;-92
2023/05/13 03:48:53;;;;;;;8.43;7.22;;;;;;;11.27;93.27;101840.13;4716771;30;20472;-91
2023/05/13 03:59:19;;;;;;;11.80;7.40;;;;;;;11.06;95.39;101848.06;4698095;30;20111;-90
2023/05/13 04:05:20;;;;;;;11.57;7.93;;;;;;;10.96;95.92;101842.13;4716784;30;20076;-90
2023/05/13 04:24:44;;;;;;;13.07;8.27;;;;;;;10.90;95.92;101842.91;4684207;30;20100;-91
2023/05/13 04:37:24;;;;;;;11.25;7.78;;;;;;;10.91;96.00;101846.44;4684914;30;20098;-90
2023/05/13 04:40:13;;;;;;;15.00;7.93;;;;;;;10.91;95.34;101839.16;4768588;29;20091;-92
2023/05/13 04:42:53;;;;;;;15.85;7.82;;;;;;;10.95;96.72;101856.72;4810809;29;20047;-90
2023/05/13 04:45:41;;;;;;;12.20;8.23;;;;;;;10.93;96.74;101847.13;4825716;29;20071;-90
2023/05/13 05:00:58;;;;;;;;;;;;;;;;;;;;;
2023/05/13 05:03:30;;;;;;;10.25;8.23;;;;;;;11.09;95.50;101851.44;4835556;29;20056;-91
2023/05/13 05:05:58;;;;;;;10.07;8.27;;;;;;;11.18;96.13;101869.28;4884482;29;20040;-90
2023/05/13 05:08:57;;;;;;;;;;;;;;;;;;;;;
2023/05/13 05:12:00;;;;;;;11.18;8.07;;;;;;;11.32;94.73;101875.69;4889237;29;20048;-91
2023/05/13 05:15:10;;;;;;;13.33;7.90;;;;;;;11.24;96.01;101866.63;4884138;29;20168;-91
2023/05/13 05:21:03;;;;;;;13.32;8.25;;;;;;;11.33;95.67;101869.22;4900816;29;20042;-91
2023/05/13 05:23:39;;;;;;;12.02;7.97;;;;;;;11.44;95.84;101878.72;4869410;29;20511;-90
2023/05/13 05:26:12;;;;;;;10.57;7.93;;;;;;;11.40;95.48;101878.28;4869435;29;20040;-91
2023/05/13 05:28:43;;;;;;;13.67;8.97;;;;;;;11.50;96.04;101881.50;4852899;29;20067;-91
2023/05/13 05:31:12;;;;;;;17.63;8.60;;;;;;;11.57;95.39;101884.25;4868186;29;20044;-91
2023/05/13 05:36:30;;;;;;;9.95;7.88;;;;;;;11.68;94.98;101885.63;4886054;29;20075;-86
2023/05/13 05:38:55;;;;;;;11.85;7.93;;;;;;;11.86;96.22;101891.38;4900288;29;20064;-86
2023/05/13 05:41:21;;;;;;;10.67;8.53;;;;;;;11.95;95.09;101888.56;4867881;29;20456;-86
2023/05/13 05:43:46;;;;;;;11.70;8.63;;;;;;;12.02;94.44;101884.00;4883113;29;20457;-87
2023/05/13 05:46:12;;;;;;;10.32;7.82;;;;;;;12.06;94.60;101891.56;4882958;29;20542;-86
2023/05/13 05:48:38;;;;;;;11.87;8.97;;;;;;;12.18;95.34;101901.84;4881302;29;20116;-86
2023/05/13 05:51:03;;;;;;;13.55;9.38;;;;;;;12.14;94.22;101889.72;4866857;29;20060;-87
2023/05/13 05:53:39;;;;;;;;;;;;;;;;;;;;;
2023/05/13 05:56:14;;;;;;;11.18;8.65;;;;;;;12.23;93.99;101891.22;4884304;29;20049;-87
2023/05/13 05:58:46;;;;;;;10.32;8.95;;;;;;;12.27;93.69;101895.22;4899650;29;20120;-88
2023/05/13 06:01:14;;;;;;;12.43;9.15;;;;;;;12.36;92.71;101895.91;4872384;29;20048;-86
2023/05/13 06:03:40;;;;;;;15.67;8.63;;;;;;;12.53;93.37;101904.56;4901173;29;20064;-85
2023/05/13 06:06:10;;;;;;;17.85;8.95;;;;;;;12.53;92.62;101899.13;4901273;29;20421;-86
2023/05/13 06:08:41;;;;;;;12.88;9.38;;;;;;;12.56;92.17;101896.84;4918316;29;20480;-87
2023/05/13 06:11:29;;;;;;;;;;;;;;;;;;;;;
2023/05/13 06:14:00;;;;;;;16.40;9.15;;;;;;;12.63;92.51;101900.41;4918251;29;20036;-87
2023/05/13 06:16:32;;;;;;;11.32;9.07;;;;;;;12.64;92.42;101895.81;4917969;29;20036;-87
2023/05/13 06:19:03;;;;;;;13.13;8.85;;;;;;;12.70;91.63;101900.44;4901458;29;20473;-87
2023/05/13 06:21:30;;;;;;;13.32;9.57;;;;;;;12.81;91.97;101910.75;4885411;29;20047;-90
2023/05/13 06:23:56;;;;;;;13.97;8.93;;;;;;;12.82;91.06;101917.03;4900405;29;20119;-89
2023/05/13 06:26:32;;;;;;;;;;;;;;;;;;;;;
2023/05/13 06:28:57;;;;;;;13.55;8.95;;;;;;;12.89;91.36;101914.31;4917605;29;20036;-88
2023/05/13 06:31:28;;;;;;;15.60;9.07;;;;;;;12.87;91.43;101910.97;4900940;29;20127;-89
2023/05/13 06:33:56;;;;;;;12.23;9.70;;;;;;;12.98;91.37;101910.38;4885108;29;20080;-89
2023/05/13 06:36:27;;;;;;;12.85;9.32;;;;;;;13.05;90.53;101921.28;4901190;29;20028;-90
2023/05/13 06:38:57;;;;;;;13.70;9.70;;;;;;;13.04;91.61;101908.72;4900761;29;20036;-90
2023/05/13 06:41:28;;;;;;;13.68;9.65;;;;;;;13.20;92.22;101923.81;4901124;29;20040;-90
2023/05/13 06:43:53;;;;;;;12.75;9.27;;;;;;;13.26;90.90;101918.41;4900576;29;20032;-89
2023/05/13 06:46:21;;;;;;;14.43;9.60;;;;;;;13.27;89.95;101919.22;4900811;29;20039;-88
2023/05/13 06:48:55;;;;;;;11.52;9.68;;;;;;;13.27;89.52;101927.41;4900693;29;20040;-89
2023/05/13 06:51:31;;;;;;;12.45;9.85;;;;;;;13.25;89.65;101918.59;4884285;29;20039;-89
2023/05/13 06:53:59;;;;;;;16.02;9.70;;;;;;;13.39;89.85;101925.81;4917687;29;20441;-89
2023/05/13 06:56:36;;;;;;;12.50;9.60;;;;;;;13.55;90.49;101913.63;4884695;29;20040;-88
2023/05/13 06:59:02;;;;;;;14.68;9.52;;;;;;;13.77;89.96;101919.72;4884670;29;20386;-89
2023/05/13 07:01:27;;;;;;;15.32;9.60;;;;;;;13.93;87.61;101914.88;4899990;29;20127;-89
2023/05/13 07:04:00;;;;;;;13.67;9.97;;;;;;;14.05;87.84;101915.91;4900122;29;20028;-89
2023/05/13 07:06:41;;;;;;;;;;;;;;;;;;;;;
2023/05/13 07:09:09;;;;;;;11.63;9.27;;;;;;;14.46;85.99;101920.22;4917260;29;20463;-89
2023/05/13 07:11:40;;;;;;;16.43;9.80;;;;;;;14.71;83.83;101934.00;4900075;29;20039;-89
2023/05/13 07:14:14;;;;;;;13.85;9.80;;;;;;;14.82;82.55;101916.13;4917257;29;20039;-89
2023/05/13 07:16:40;;;;;;;16.35;9.80;;;;;;;15.00;80.67;101917.25;4884851;29;20032;-90
2023/05/13 07:19:13;;;;;;;16.30;9.90;;;;;;;15.05;81.52;101912.00;4899960;29;20040;-89
2023/05/13 07:21:43;;;;;;;13.63;9.88;;;;;;;15.06;81.45;101913.69;4899607;29;20032;-90
2023/05/13 07:24:32;;;;;;;15.68;10.35;;;;;;;15.02;82.44;101926.94;4884799;29;20060;-89
2023/05/13 07:27:12;;;;;;;14.52;9.98;;;;;;;14.94;81.67;101915.41;4900233;29;20032;-90
2023/05/13 07:29:51;;;;;;;17.33;9.82;;;;;;;15.02;82.40;101920.63;4900156;29;20050;-89
2023/05/13 07:32:39;;;;;;;;;;;;;;;;;;;;;
2023/05/13 07:35:13;;;;;;;14.50;9.63;;;;;;;15.30;81.50;101898.38;4916955;29;20040;-89
2023/05/13 07:37:42;;;;;;;13.50;9.23;;;;;;;15.46;80.84;101910.66;4916891;29;20083;-90
2023/05/13 07:40:08;;;;;;;14.60;9.77;;;;;;;15.57;80.10;101912.66;4901403;29;20035;-89
2023/05/13 07:42:39;;;;;;;16.90;9.60;;;;;;;15.56;79.26;101911.00;4903845;29;20055;-89
2023/05/13 07:45:10;;;;;;;10.43;9.23;;;;;;;15.59;79.23;101909.72;4888397;29;20048;-89
2023/05/13 07:48:02;;;;;;;15.35;9.48;;;;;;;15.68;80.23;101916.59;4889211;29;20028;-90
2023/05/13 07:50:30;;;;;;;14.25;9.73;;;;;;;15.82;79.22;101914.59;4888912;29;20066;-89
2023/05/13 07:53:03;;;;;;;12.05;8.98;;;;;;;15.91;79.76;101915.97;4904353;29;20058;-89
2023/05/13 07:55:31;;;;;;;10.68;8.77;;;;;;;15.91;77.83;101918.72;4903682;29;20028;-89
2023/05/13 07:57:59;;;;;;;11.17;8.70;;;;;;;15.88;77.27;101912.88;4903958;29;20035;-89
2023/05/13 08:00:25;;;;;;;12.52;9.48;;;;;;;15.87;76.91;101914.78;4903260;29;20024;-89
2023/05/13 08:02:56;;;;;;;11.70;8.75;;;;;;;15.91;76.96;101924.19;4903009;29;20056;-89
2023/05/13 08:05:25;;;;;;;10.73;8.40;;;;;;;15.99;77.23;101931.28;4903534;29;20079;-89
2023/05/13 08:08:00;;;;;;;11.93;9.40;;;;;;;16.10;76.07;101938.75;4920473;29;20087;-89
2023/05/13 08:10:30;;;;;;;13.68;9.18;;;;;;;16.04;75.79;101925.13;4903070;29;20040;-90
2023/05/13 08:13:01;;;;;;;14.68;8.95;;;;;;;16.16;76.26;101931.53;4887898;29;20040;-89
2023/05/13 08:15:27;;;;;;;14.63;8.98;;;;;;;16.11;75.60;101926.75;4903434;29;20044;-89
2023/05/13 08:18:10;;;;;;;10.13;8.47;;;;;;;16.14;76.43;101923.53;4904617;29;20120;-89
2023/05/13 08:20:48;;;;;;;;;;;;;;;;;;;;;
2023/05/13 08:23:14;;;;;;;10.52;8.77;;;;;;;16.45;74.86;101912.69;4920429;29;20032;-88
2023/05/13 08:26:04;;;;;;;14.17;8.83;;;;;;;16.80;74.23;101915.63;4919981;29;20029;-90
2023/05/13 08:28:36;;;;;;;14.20;8.82;;;;;;;16.96;70.65;101919.66;4903403;29;20032;-89
2023/05/13 08:31:02;;;;;;;13.30;8.90;;;;;;;17.03;71.05;101925.03;4903222;29;20063;-89
2023/05/13 08:33:41;;;;;;;12.67;8.77;;;;;;;16.96;70.35;101913.31;4887527;29;20061;-89
2023/05/13 08:36:26;;;;;;;11.25;8.18;;;;;;;16.96;71.57;101911.44;4903074;29;20060;-89
2023/05/13 08:38:56;;;;;;;16.45;9.13;;;;;;;17.03;73.83;101929.69;4903516;29;20470;-89
2023/05/13 08:41:24;;;;;;;11.07;8.90;;;;;;;17.08;73.72;101916.97;4887435;29;20090;-90
2023/05/13 08:43:53;;;;;;;13.10;8.35;;;;;;;17.28;72.09;101922.13;4887180;29;20556;-89
2023/05/13 08:46:37;;;;;;;11.83;10.37;;;;;;;17.32;70.63;101919.78;4919602;29;20039;-89
2023/05/13 08:49:13;;;;;;;;;;;;;;;;;;;;;
2023/05/13 08:51:40;;;;;;;11.40;8.98;;;;;;;17.60;71.10;101921.00;4918351;29;20037;-90
2023/05/13 08:54:16;;;;;;;12.93;9.27;;;;;;;17.64;71.13;101919.47;4919915;29;20032;-90
2023/05/13 08:56:47;;;;;;;15.40;9.85;;;;;;;17.62;69.33;101930.66;4888017;29;20043;-89
2023/05/13 08:59:13;;;;;;;11.33;9.00;;;;;;;17.55;69.93;101918.97;4902184;29;20036;-89
2023/05/13 09:02:08;;;;;;;;;;;;;;;;;;;;;
2023/05/13 09:04:46;;;;;;;12.37;8.70;;;;;;;17.50;66.09;101922.41;4919619;29;20048;-90
2023/05/13 09:07:19;;;;;;;11.57;8.70;;;;;;;17.46;66.71;101903.94;4902004;29;20032;-89
2023/05/13 09:09:55;;;;;;;;;;;;;;;;;;;;;
2023/05/13 09:12:47;;;;;;;11.35;8.88;;;;;;;17.72;68.69;101921.88;4920435;29;20044;-89
2023/05/13 09:15:19;;;;;;;10.77;8.27;;;;;;;17.79;67.55;101928.06;4902335;29;20532;-89
2023/05/13 09:17:48;;;;;;;12.23;9.07;;;;;;;17.86;68.83;101908.72;4902319;29;20028;-89
2023/05/13 09:20:18;;;;;;;11.07;9.15;;;;;;;17.94;68.49;101913.91;4902153;29;20075;-90
2023/05/13 09:22:56;;;;;;;12.85;9.32;;;;;;;18.15;69.48;101925.38;4886723;29;20044;-90
2023/05/13 09:25:33;;;;;;;11.98;8.70;;;;;;;18.17;65.98;101915.81;4902275;29;20032;-90
2023/05/13 09:28:25;;;;;;;11.75;8.45;;;;;;;18.26;65.53;101918.19;4902127;29;20040;-89
2023/05/13 09:30:56;;;;;;;12.30;8.27;;;;;;;18.26;64.23;101909.94;4902560;29;20035;-90
2023/05/13 09:33:28;;;;;;;14.00;8.55;;;;;;;18.34;65.65;101899.41;4887034;29;20135;-90
2023/05/13 09:36:11;;;;;;;12.80;9.20;;;;;;;18.46;65.38;101899.38;4902788;29;20032;-90
2023/05/13 09:38:42;;;;;;;12.70;9.57;;;;;;;18.58;66.53;101891.94;4904002;29;20425;-90
2023/05/13 09:41:31;;;;;;;14.68;9.10;;;;;;;18.71;65.49;101904.56;4886405;29;20043;-90
2023/05/13 09:44:04;;;;;;;14.67;9.13;;;;;;;18.84;66.30;101899.84;4901887;29;20079;-90
2023/05/13 09:46:33;;;;;;;14.35;9.95;;;;;;;18.92;65.58;101899.50;4918783;29;20028;-91
2023/05/13 09:49:11;;;;;;;14.63;9.52;;;;;;;18.93;62.22;101893.75;4901613;29;20537;-91
2023/05/13 09:51:52;;;;;;;;;;;;;;;;;;;;;
2023/05/13 09:54:18;;;;;;;14.10;9.63;;;;;;;19.24;63.45;101899.81;4918662;29;20028;-88
2023/05/13 09:56:47;;;;;;;13.67;9.33;;;;;;;19.35;62.66;101887.06;4901340;29;20122;-88
2023/05/13 09:59:16;;;;;;;14.73;9.10;;;;;;;19.44;61.98;101896.59;4901382;29;20032;-88
2023/05/13 10:01:45;;;;;;;13.13;8.88;;;;;;;19.55;62.13;101894.00;4918048;29;20056;-88
2023/05/13 10:04:11;;;;;;;11.77;8.27;;;;;;;19.66;60.07;101884.78;4900645;29;20477;-88
2023/05/13 10:06:41;;;;;;;12.43;8.13;;;;;;;19.75;59.32;101876.94;4901116;29;20076;-88
2023/05/13 10:09:21;;;;;;;9.75;7.35;;;;;;;19.89;56.92;101880.22;4918194;29;20060;-88
2023/05/13 10:11:47;;;;;;;12.83;7.37;;;;;;;20.09;58.89;101886.03;4901137;29;20043;-88
2023/05/13 10:14:17;;;;;;;11.10;7.60;;;;;;;20.27;57.75;101879.38;4901215;29;20024;-88
2023/05/13 10:16:46;;;;;;;12.43;8.30;;;;;;;20.45;57.69;101880.97;4917872;29;20060;-88
2023/05/13 10:19:12;;;;;;;9.48;7.60;;;;;;;20.64;58.00;101875.13;4917922;29;20027;-88
2023/05/13 10:21:41;;;;;;;11.23;7.68;;;;;;;20.78;55.78;101872.84;4900690;29;20032;-88
2023/05/13 10:24:10;;;;;;;11.77;7.30;;;;;;;20.95;54.71;101865.28;4900890;29;20036;-88
2023/05/13 10:26:40;;;;;;;13.90;7.40;;;;;;;21.16;54.40;101871.81;4918105;29;20024;-89
2023/05/13 10:29:09;;;;;;;10.40;7.50;;;;;;;21.44;53.64;101875.38;4885581;29;20052;-88
2023/05/13 10:31:40;;;;;;;11.32;7.60;;;;;;;21.47;53.22;101874.84;4901207;29;20036;-88
2023/05/13 10:34:06;;;;;;;10.73;7.72;;;;;;;21.65;53.24;101865.34;4900707;29;20390;-88
2023/05/13 10:37:02;;;;;;;7.70;6.90;;;;;;;21.90;54.11;101861.09;4900887;29;20039;-88
2023/05/13 10:40:20;;;;;;;10.25;7.47;;;;;;;22.32;53.68;101882.34;4900797;29;20084;-88
2023/05/13 10:42:53;;;;;;;7.53;6.75;;;;;;;22.59;53.34;101867.50;4854948;29;20034;-88
2023/05/13 10:45:18;;;;;;;8.67;7.77;;;;;;;22.83;49.69;101872.53;4843615;29;20080;-89
2023/05/13 10:47:50;;;;;;;9.30;7.10;;;;;;;23.04;50.42;101865.91;4867221;29;20064;-89
2023/05/13 10:50:30;;;;;;;12.52;7.57;;;;;;;23.20;48.52;101858.50;4881493;29;20036;-89
2023/05/13 10:52:57;;;;;;;12.77;7.03;;;;;;;23.51;47.59;101855.72;4882631;29;20037;-88
2023/05/13 10:55:26;;;;;;;9.30;6.57;;;;;;;23.71;47.79;101859.56;4882007;29;20033;-88
2023/05/13 10:58:23;;;;;;;10.18;6.30;;;;;;;24.04;47.86;101866.44;4898657;29;20040;-88
2023/05/13 11:01:16;;;;;;;7.00;4.93;;;;;;;24.44;45.56;101861.84;4898948;29;20024;-91
2023/05/13 11:03:53;;;;;;;7.75;4.57;;;;;;;24.71;42.69;101865.34;4881895;29;20033;-91
2023/05/13 11:06:28;;;;;;;7.03;4.90;;;;;;;25.08;41.46;101858.41;4882149;29;20038;-94
2023/05/13 11:08:56;;;;;;;7.78;4.85;;;;;;;25.05;38.45;101857.03;4882541;29;20037;-94
2023/05/13 11:11:31;;;;;;;6.20;4.90;;;;;;;25.41;38.67;101858.72;4899264;29;20477;-96
2023/05/13 11:14:15;;;;;;;11.38;4.53;;;;;;;26.21;40.03;101863.75;4899095;29;20029;-94
2023/05/13 11:17:09;;;;;;;6.07;4.35;;;;;;;28.39;36.13;101847.84;4882723;29;20477;-95
2023/05/13 11:19:44;;;;;;;9.83;4.73;;;;;;;31.79;30.03;101833.34;4899385;29;20032;-95
2023/05/13 11:22:13;;;;;;;5.40;4.47;;;;;;;33.47;25.72;101846.59;4900487;29;20025;-94
2023/05/13 11:24:43;;;;;;;8.88;4.40;;;;;;;35.48;22.97;101832.22;4900581;29;20039;-94
2023/05/13 11:27:17;;;;;;;6.90;4.55;;;;;;;35.80;24.77;101834.25;4901616;29;20032;-94
2023/05/13 11:29:50;;;;;;;6.50;3.78;;;;;;;37.30;21.67;101837.91;4900866;29;20037;-93
2023/05/13 11:32:55;;;;;;;8.87;3.90;;;;;;;39.67;21.05;101820.41;4900666;29;20040;-95
2023/05/13 11:35:23;;;;;;;5.75;3.90;;;;;;;41.33;17.20;101810.63;4917695;29;20036;-95
2023/05/13 11:37:49;;;;;;;7.60;4.10;;;;;;;40.86;15.96;101804.00;4900683;29;20495;-94
2023/05/13 11:40:34;;;;;;;6.80;4.35;;;;;;;41.54;18.83;101798.41;4901380;29;20114;-94
2023/05/13 11:43:06;;;;;;;12.73;4.40;;;;;;;42.62;15.96;101808.75;4899856;29;20032;-91
2023/05/13 11:45:34;;;;;;;5.63;4.50;;;;;;;44.17;13.68;101798.91;4900330;29;20028;-91
2023/05/13 11:48:28;;;;;;;6.90;4.15;;;;;;;45.49;16.07;101797.44;4899699;29;20036;-91
2023/05/13 11:50:56;;;;;;;6.97;4.38;;;;;;;45.81;12.76;101791.13;4912765;29;20044;-92
2023/05/13 11:53:21;;;;;;;9.73;5.40;;;;;;;45.90;11.83;101784.81;4931276;29;20092;-91
2023/05/13 11:55:50;;;;;;;10.33;4.77;;;;;;;43.25;13.24;101773.69;4916699;29;20036;-91
2023/05/13 11:58:20;;;;;;;9.18;4.90;;;;;;;39.86;15.01;101787.28;4917014;29;20036;-92
2023/05/13 12:00:51;;;;;;;7.32;4.35;;;;;;;40.26;14.08;101774.97;4917036;29;20040;-93
2023/05/13 12:03:19;;;;;;;6.27;4.50;;;;;;;42.12;12.88;101771.84;4900814;29;20052;-93
2023/05/13 12:05:52;;;;;;;5.47;4.10;;;;;;;43.43;12.73;101774.34;4900807;29;20032;-95
2023/05/13 12:08:22;;;;;;;5.70;4.03;;;;;;;44.00;11.29;101774.19;4870860;29;20052;-96
2023/05/13 12:10:50;;;;;;;9.88;4.97;;;;;;;45.05;11.84;101770.75;4900242;29;20039;-94
2023/05/13 12:13:28;;;;;;;5.72;4.45;;;;;;;46.29;11.08;101765.16;4900422;29;20115;-95
2023/05/13 12:16:03;;;;;;;10.77;4.67;;;;;;;46.01;10.42;101767.41;4900958;29;20040;-93
2023/05/13 12:18:31;;;;;;;7.72;4.90;;;;;;;47.20;9.74;101758.94;4900438;29;20029;-95
2023/05/13 12:20:56;;;;;;;6.78;4.97;;;;;;;47.59;9.21;101766.53;4916968;29;20100;-94
2023/05/13 12:23:24;;;;;;;9.93;5.30;;;;;;;44.77;10.32;101755.66;4900297;29;20437;-93
2023/05/13 12:25:52;;;;;;;11.10;5.18;;;;;;;44.49;10.55;101754.81;4901133;29;20036;-93
2023/05/13 12:28:18;;;;;;;6.60;5.30;;;;;;;46.10;10.16;101750.41;4922123;29;20059;-95
2023/05/13 12:30:58;;;;;;;5.45;5.00;;;;;;;47.94;11.21;101754.47;4920532;29;20535;-95
2023/05/13 12:33:33;;;;;;;5.53;5.03;;;;;;;48.09;10.62;101760.63;4903714;29;20042;-94
2023/05/13 12:36:24;;;;;;;6.30;5.22;;;;;;;48.77;10.82;101760.56;4904032;29;20059;-95
2023/05/13 12:39:10;;;;;;;7.30;5.32;;;;;;;48.95;9.94;101743.53;4888582;29;20096;-93
2023/05/13 12:41:40;;;;;;;6.00;5.40;;;;;;;46.39;10.04;101746.91;4935879;29;20472;-94
2023/05/13 12:44:15;;;;;;;9.38;5.50;;;;;;;46.03;10.89;101756.28;4920519;29;20040;-94
2023/05/13 12:47:03;;;;;;;7.00;5.10;;;;;;;47.23;11.05;101749.41;4936463;29;20044;-93
2023/05/13 12:49:33;;;;;;;6.88;5.25;;;;;;;48.20;9.19;101740.97;4906247;29;20044;-94
2023/05/13 12:52:03;;;;;;;6.75;5.70;;;;;;;49.01;8.39;101749.53;4920376;29;20103;-95
2023/05/13 12:54:29;;;;;;;9.75;5.57;;;;;;;49.62;7.96;101750.25;4906524;29;20119;-95
2023/05/13 12:56:55;;;;;;;6.90;5.67;;;;;;;49.86;7.67;101744.84;4903406;29;20446;-94
2023/05/13 12:59:20;;;;;;;9.13;6.20;;;;;;;49.72;7.21;101733.84;4903433;29;20281;-95
2023/05/13 13:01:50;;;;;;;8.03;6.10;;;;;;;50.24;7.08;101742.97;4902832;29;20485;-94
2023/05/13 13:04:17;;;;;;;7.07;6.38;;;;;;;50.41;7.28;101748.53;4904041;29;20058;-95
2023/05/13 13:06:45;;;;;;;7.00;6.50;;;;;;;50.80;7.05;101737.47;4903281;29;20044;-94
2023/05/13 13:09:13;;;;;;;7.53;6.80;;;;;;;50.38;6.86;101739.56;4894215;29;20109;-94
2023/05/13 13:11:47;;;;;;;7.00;6.40;;;;;;;50.25;7.80;101746.69;4898107;29;20445;-93
2023/05/13 13:14:24;;;;;;;6.73;6.00;;;;;;;50.19;8.54;101750.19;4903268;29;20039;-94
2023/05/13 13:16:52;;;;;;;6.90;6.30;;;;;;;50.71;6.81;101735.38;4905053;29;20123;-94
2023/05/13 13:19:20;;;;;;;9.43;7.03;;;;;;;50.72;6.64;101728.31;4919282;29;20056;-94
2023/05/13 13:21:53;;;;;;;7.43;6.57;;;;;;;51.21;7.36;101743.97;4902713;29;20055;-95
2023/05/13 13:24:21;;;;;;;7.93;6.40;;;;;;;51.98;6.53;101734.28;4903151;29;20444;-94
2023/05/13 13:26:49;;;;;;;6.93;6.23;;;;;;;51.85;6.47;101737.38;4902333;29;20039;-93
2023/05/13 13:29:17;;;;;;;7.38;6.63;;;;;;;48.87;7.68;101738.47;4903099;29;20036;-94
2023/05/13 13:31:45;;;;;;;6.85;6.25;;;;;;;46.21;8.52;101732.97;4919360;29;20042;-94
2023/05/13 13:34:18;;;;;;;9.00;6.00;;;;;;;47.18;9.22;101733.53;4902844;29;20040;-94
2023/05/13 13:36:44;;;;;;;6.65;6.07;;;;;;;47.70;8.84;101720.22;4902388;29;20132;-94
2023/05/13 13:39:11;;;;;;;6.00;5.50;;;;;;;45.96;8.71;101722.03;4902455;29;20067;-95
2023/05/13 13:41:39;;;;;;;7.80;5.28;;;;;;;45.54;10.31;101723.25;4886597;29;20138;-92
2023/05/13 13:44:07;;;;;;;94.82;11.13;;;;;;;44.80;11.15;101723.31;4901842;29;20032;-92
2023/05/13 13:46:33;;;;;;;8.57;5.20;;;;;;;44.00;9.86;101720.72;4902113;29;20036;-88
2023/05/13 13:48:58;;;;;;;9.07;5.63;;;;;;;45.47;9.58;101717.66;4886642;29;20032;-90
2023/05/13 13:51:26;;;;;;;6.13;5.10;;;;;;;47.78;8.46;101720.88;4901853;29;20036;-89
2023/05/13 13:53:52;;;;;;;6.30;5.38;;;;;;;48.54;8.24;101707.88;4901797;29;20032;-90
2023/05/13 13:56:18;;;;;;;9.80;5.77;;;;;;;48.99;7.73;101715.44;4901676;29;20024;-90
2023/05/13 13:58:44;;;;;;;7.28;5.97;;;;;;;49.47;7.14;101703.06;4901613;29;20028;-88
2023/05/13 14:01:10;;;;;;;6.50;5.83;;;;;;;49.71;7.67;101700.50;4901235;29;20212;-88
2023/05/13 14:03:37;;;;;;;8.55;6.30;;;;;;;50.07;8.02;101702.06;4901591;29;20131;-89
2023/05/13 14:06:03;;;;;;;7.97;5.60;;;;;;;50.43;7.12;101696.94;4919848;29;20039;-89
2023/05/13 14:08:29;;;;;;;7.13;6.53;;;;;;;50.09;6.97;101708.13;4903176;29;20052;-88
2023/05/13 14:10:54;;;;;;;7.20;6.57;;;;;;;50.42;7.04;101698.19;4902286;29;20044;-88
2023/05/13 14:14:18;;;;;;;7.25;6.22;;;;;;;51.24;7.73;101688.09;4918361;29;20036;-88
2023/05/13 14:20:11;;;;;;;7.60;6.53;;;;;;;51.61;7.25;101696.75;4921610;29;20072;-88
2023/05/13 14:22:37;;;;;;;8.65;5.90;;;;;;;49.94;7.22;101684.03;4903497;29;20523;-89
2023/05/13 14:25:03;;;;;;;7.20;5.93;;;;;;;47.03;8.77;101684.31;4916730;29;20032;-88
2023/05/13 14:27:28;;;;;;;6.88;6.15;;;;;;;43.35;10.25;101678.56;4901066;29;20032;-88
2023/05/13 14:29:53;;;;;;;5.83;5.37;;;;;;;41.69;11.29;101678.75;4880167;29;20060;-88
2023/05/13 14:32:19;;;;;;;6.67;4.80;;;;;;;42.99;11.19;101664.59;4889499;29;20036;-89
2023/05/13 14:34:45;;;;;;;8.50;4.75;;;;;;;45.37;10.27;101669.94;4919209;29;20032;-88
2023/05/13 14:37:15;;;;;;;6.50;5.70;;;;;;;46.83;9.00;101674.97;4920122;29;20062;-89
2023/05/13 14:39:40;;;;;;;6.68;5.50;;;;;;;47.66;8.85;101667.78;4936989;29;20031;-89
2023/05/13 14:42:10;;;;;;;6.10;5.50;;;;;;;47.84;8.31;101663.59;4919743;29;20464;-91
2023/05/13 14:44:35;;;;;;;5.68;4.93;;;;;;;48.58;8.80;101665.38;4919782;29;20047;-89
2023/05/13 14:47:01;;;;;;;7.68;5.50;;;;;;;48.87;7.49;101667.28;4936374;29;20541;-89
2023/05/13 14:49:31;;;;;;;7.40;6.00;;;;;;;49.13;7.38;101672.97;4919043;29;20551;-90
2023/05/13 14:51:56;;;;;;;6.53;5.57;;;;;;;49.37;7.65;101664.72;4903848;29;20083;-89
2023/05/13 14:54:22;;;;;;;6.83;6.13;;;;;;;49.27;7.79;101660.97;4919693;29;20035;-89
2023/05/13 14:56:47;;;;;;;8.77;6.30;;;;;;;49.49;8.01;101655.22;4919168;29;20094;-90
2023/05/13 14:59:13;;;;;;;7.38;6.45;;;;;;;49.50;8.23;101665.44;4919164;29;20032;-89
2023/05/13 15:01:38;;;;;;;6.70;6.10;;;;;;;47.86;8.03;101661.09;4935943;29;20093;-90
2023/05/13 15:04:04;;;;;;;6.87;6.10;;;;;;;47.89;8.00;101649.47;4919913;29;20043;-90
2023/05/13 15:06:30;;;;;;;6.18;5.55;;;;;;;45.83;9.43;101651.06;4919920;29;20119;-90